Walshville, Illinois
Current Conditions -  °F | °C
As of 12:15 PM on Wednesday 28 Jan 2015 (Local Time) from K3LF Reporting Station
Clear Clear  
Wind Chill: 27°   Ceiling: Unl
Heat Index: 37°   Visibility: 10mi
Dew Point: 28°   Wind: 20mph
Humidity: 69%   Direction: 150°SSE
Pressure: 30.15"   Gusts: 25mph
Location:  39.07°N, 89.62°W
Report Text: K3LF 281815Z AUTO 15017G22KT 10SM CLR 03/M02 A3015 RMK AO2 T00281023
Loading
Personal Weather Stations






























Interactive Weather Map New forecast layout! Learn more

10-Day Weather Forecast

Advertisements
Track Severe Weather on mobile